Time;durP1;ratioP1;P1;durP2;ratioP2;P2;SDS_P1;SDS_P2;PMS_P1;PMS_P2;Temp;Humidity;BMP_temperature;BMP_pressure;BME280_temperature;BME280_humidity;BME280_pressure;Samples;Min_cycle;Max_cycle;Signal;HPM_P1;HPM_P2
2023/12/30 00:01:48;;;;;;;11.48;2.03;;;7.00;99.90;;;;;;7372484;19;20027;-64
2023/12/30 00:04:14;;;;;;;8.63;2.10;;;7.00;99.90;;;;;;7371349;19;20018;-64
2023/12/30 00:06:40;;;;;;;9.20;1.90;;;7.00;99.90;;;;;;7368448;19;20026;-64
2023/12/30 00:09:07;;;;;;;10.18;1.92;;;7.00;99.90;;;;;;7376078;19;20022;-68
2023/12/30 00:11:33;;;;;;;8.50;1.63;;;7.00;99.90;;;;;;7371876;19;20537;-68
2023/12/30 00:13:59;;;;;;;10.40;1.90;;;7.00;99.90;;;;;;7378931;19;20030;-68
2023/12/30 00:16:28;;;;;;;10.10;1.80;;;7.00;99.90;;;;;;7377156;19;20014;-68
2023/12/30 00:19:14;;;;;;;7.15;1.70;;;7.10;99.90;;;;;;7380463;19;20477;-68
2023/12/30 00:21:40;;;;;;;9.70;1.75;;;7.00;99.90;;;;;;7377934;19;20018;-68
2023/12/30 00:24:07;;;;;;;6.22;1.75;;;6.90;99.90;;;;;;7376962;19;20785;-68
2023/12/30 00:26:33;;;;;;;8.93;1.88;;;6.90;99.90;;;;;;7376054;19;20019;-67
2023/12/30 00:29:04;;;;;;;10.57;1.73;;;6.80;99.90;;;;;;7379516;19;20695;-67
2023/12/30 00:31:32;;;;;;;9.32;3.00;;;6.70;99.90;;;;;;7379152;19;20304;-68
2023/12/30 00:34:00;;;;;;;7.10;1.55;;;6.70;99.90;;;;;;7375376;19;20028;-67
2023/12/30 00:36:28;;;;;;;8.43;1.30;;;6.60;99.90;;;;;;7378563;19;20026;-68
2023/12/30 00:38:56;;;;;;;11.88;2.17;;;6.60;99.90;;;;;;7378725;19;20115;-67
2023/12/30 00:41:23;;;;;;;9.55;1.50;;;6.60;99.90;;;;;;7376719;19;20011;-63
2023/12/30 00:43:49;;;;;;;4.72;1.45;;;6.60;99.90;;;;;;7374447;19;20018;-64
2023/12/30 00:46:17;;;;;;;8.80;1.92;;;6.60;99.90;;;;;;7374547;19;20130;-64
2023/12/30 00:48:43;;;;;;;7.05;1.77;;;6.50;99.90;;;;;;7373842;19;20388;-64
2023/12/30 00:51:10;;;;;;;10.55;2.25;;;6.50;99.90;;;;;;7374034;19;20031;-64
2023/12/30 00:53:36;;;;;;;8.23;2.03;;;6.50;99.90;;;;;;7373724;19;20060;-64
2023/12/30 00:56:02;;;;;;;9.32;1.73;;;6.50;99.90;;;;;;7371641;19;20022;-64
2023/12/30 00:58:30;;;;;;;9.10;2.20;;;6.50;99.90;;;;;;7374223;19;20025;-64
2023/12/30 01:00:56;;;;;;;6.30;1.40;;;6.40;99.90;;;;;;7370900;19;20029;-64
2023/12/30 01:03:22;;;;;;;7.18;1.58;;;6.40;99.90;;;;;;7372430;19;20060;-64
2023/12/30 01:05:49;;;;;;;12.55;1.95;;;6.40;99.90;;;;;;7375936;19;20022;-64
2023/12/30 01:08:15;;;;;;;7.00;1.52;;;6.30;99.90;;;;;;7372800;19;20596;-64
2023/12/30 01:10:41;;;;;;;9.70;1.65;;;6.30;99.90;;;;;;7369568;19;20028;-64
2023/12/30 01:13:08;;;;;;;10.48;1.67;;;6.30;99.90;;;;;;7371323;19;20589;-64
2023/12/30 01:15:35;;;;;;;9.60;1.58;;;6.30;99.90;;;;;;7373586;19;20031;-64
2023/12/30 01:18:02;;;;;;;7.70;1.50;;;6.20;99.90;;;;;;7370874;19;20034;-64
2023/12/30 01:20:29;;;;;;;4.65;1.40;;;6.20;99.90;;;;;;7371294;19;20026;-64
2023/12/30 01:23:15;;;;;;;12.63;2.65;;;6.20;99.90;;;;;;7369695;19;20714;-67
2023/12/30 01:25:42;;;;;;;11.85;2.17;;;6.20;99.90;;;;;;7378379;19;20011;-67
2023/12/30 01:28:10;;;;;;;8.35;1.52;;;6.10;99.90;;;;;;7374503;19;20960;-65
2023/12/30 01:30:36;;;;;;;10.02;1.70;;;6.20;99.90;;;;;;7374046;19;20360;-64
2023/12/30 01:33:04;;;;;;;6.40;1.38;;;6.20;99.90;;;;;;7363782;19;20489;-64
2023/12/30 01:35:31;;;;;;;13.48;2.58;;;6.10;99.90;;;;;;7371316;19;20023;-64
2023/12/30 01:37:58;;;;;;;6.10;1.60;;;6.10;99.90;;;;;;7374556;19;20014;-68
2023/12/30 01:40:27;;;;;;;8.95;2.20;;;6.10;99.90;;;;;;7369660;19;20048;-64
2023/12/30 01:42:53;;;;;;;14.90;2.63;;;6.20;99.90;;;;;;7373099;19;20022;-64
2023/12/30 01:45:28;;;;;;;8.63;2.08;;;6.20;99.90;;;;;;7370384;19;20344;-64
2023/12/30 01:47:55;;;;;;;8.55;1.73;;;6.20;99.90;;;;;;7374947;19;20038;-65
2023/12/30 01:50:22;;;;;;;8.65;1.70;;;6.20;99.90;;;;;;7371909;19;20027;-64
2023/12/30 01:52:50;;;;;;;8.02;1.90;;;6.20;99.90;;;;;;7370874;19;20886;-64
2023/12/30 01:55:17;;;;;;;8.70;2.03;;;6.20;99.90;;;;;;7373463;19;20022;-65
2023/12/30 01:57:45;;;;;;;7.93;1.55;;;6.20;99.90;;;;;;7367373;19;20105;-64
2023/12/30 02:00:17;;;;;;;8.93;1.45;;;6.20;99.90;;;;;;7370796;19;20029;-64
2023/12/30 02:02:44;;;;;;;8.90;1.75;;;6.30;99.90;;;;;;7363056;19;20677;-64
2023/12/30 02:05:11;;;;;;;12.30;1.67;;;6.30;99.90;;;;;;7366939;19;21107;-64
2023/12/30 02:07:38;;;;;;;6.50;1.50;;;6.30;99.90;;;;;;7374150;19;20022;-67
2023/12/30 02:10:05;;;;;;;11.77;1.70;;;6.30;99.90;;;;;;7376036;19;20014;-68
2023/12/30 02:12:31;;;;;;;8.48;1.77;;;6.30;99.90;;;;;;7371441;19;20022;-67
2023/12/30 02:15:14;;;;;;;9.35;1.40;;;6.30;99.90;;;;;;7375843;19;20026;-67
2023/12/30 02:17:40;;;;;;;9.05;1.65;;;6.30;99.90;;;;;;7378557;19;20026;-67
2023/12/30 02:20:08;;;;;;;11.63;2.10;;;6.30;99.90;;;;;;7376996;19;20022;-67
2023/12/30 02:22:45;;;;;;;10.43;1.50;;;6.30;99.90;;;;;;7378775;19;20645;-67
2023/12/30 02:25:13;;;;;;;9.25;2.05;;;6.30;99.90;;;;;;7376981;19;20019;-68
2023/12/30 02:27:42;;;;;;;10.05;1.63;;;6.40;99.90;;;;;;7378740;19;20018;-67
2023/12/30 02:30:10;;;;;;;8.98;1.55;;;6.40;99.90;;;;;;7373967;19;20026;-64
2023/12/30 02:32:36;;;;;;;10.13;2.83;;;6.40;99.90;;;;;;7370339;19;20021;-67
2023/12/30 02:35:04;;;;;;;9.48;1.95;;;6.40;99.90;;;;;;7375700;19;20386;-67
2023/12/30 02:37:31;;;;;;;5.30;1.45;;;6.40;99.90;;;;;;7376984;19;20011;-67
2023/12/30 02:39:58;;;;;;;13.20;2.53;;;6.40;99.90;;;;;;7376866;19;20025;-67
2023/12/30 02:42:24;;;;;;;7.45;1.33;;;6.40;99.90;;;;;;7370399;19;20018;-67
2023/12/30 02:44:52;;;;;;;9.88;2.17;;;6.50;99.90;;;;;;7373589;19;20015;-67
2023/12/30 02:47:18;;;;;;;12.35;1.70;;;6.40;99.90;;;;;;7373985;19;20015;-67
2023/12/30 02:49:45;;;;;;;13.00;2.13;;;6.40;99.90;;;;;;7375351;19;20025;-67
2023/12/30 02:52:12;;;;;;;8.73;1.52;;;6.30;99.90;;;;;;7374690;19;20474;-67
2023/12/30 02:54:40;;;;;;;12.48;2.40;;;6.30;99.90;;;;;;7372407;19;20342;-67
2023/12/30 02:57:06;;;;;;;10.18;2.20;;;6.40;99.90;;;;;;7378278;19;20022;-67
2023/12/30 02:59:32;;;;;;;9.45;1.65;;;6.40;99.90;;;;;;7372818;19;20784;-67
2023/12/30 03:01:58;;;;;;;9.15;1.80;;;6.40;99.90;;;;;;7374278;19;20078;-64
2023/12/30 03:04:26;;;;;;;9.68;1.80;;;6.30;99.90;;;;;;7367883;19;20022;-67
2023/12/30 03:06:52;;;;;;;10.82;1.67;;;6.40;99.90;;;;;;7375195;19;20074;-67
2023/12/30 03:09:18;;;;;;;8.70;1.30;;;6.30;99.90;;;;;;7374724;19;20026;-67
2023/12/30 03:11:45;;;;;;;8.73;2.30;;;6.30;99.90;;;;;;7372386;19;20014;-67
2023/12/30 03:14:11;;;;;;;10.13;1.70;;;6.30;99.90;;;;;;7376975;19;20113;-67
2023/12/30 03:16:37;;;;;;;7.78;1.88;;;6.40;99.90;;;;;;7377931;19;20097;-67
2023/12/30 03:19:04;;;;;;;6.93;1.17;;;6.40;99.90;;;;;;7381519;19;20482;-67
2023/12/30 03:21:30;;;;;;;10.40;1.90;;;6.40;99.90;;;;;;7375719;19;20042;-67
2023/12/30 03:23:56;;;;;;;8.40;1.90;;;6.40;99.90;;;;;;7379740;19;20098;-67
2023/12/30 03:26:23;;;;;;;10.85;1.80;;;6.40;99.90;;;;;;7375584;19;20025;-67
2023/12/30 03:28:49;;;;;;;9.48;2.00;;;6.40;99.90;;;;;;7380041;19;20110;-67
2023/12/30 03:31:20;;;;;;;9.35;1.80;;;6.40;99.90;;;;;;7381896;19;20022;-67
2023/12/30 03:33:46;;;;;;;18.02;2.55;;;6.30;99.90;;;;;;7377180;19;20106;-67
2023/12/30 03:36:12;;;;;;;12.13;1.80;;;6.40;99.90;;;;;;7380974;19;20023;-67
2023/12/30 03:38:39;;;;;;;9.32;1.50;;;6.30;99.90;;;;;;7377643;19;20019;-67
2023/12/30 03:41:12;;;;;;;11.90;2.20;;;6.20;99.90;;;;;;7379411;19;20490;-67
2023/12/30 03:43:38;;;;;;;14.43;2.65;;;6.30;99.90;;;;;;7375244;19;20026;-67
2023/12/30 03:46:04;;;;;;;11.75;1.38;;;6.30;99.90;;;;;;7379544;19;20022;-64
2023/12/30 03:48:30;;;;;;;13.13;2.40;;;6.20;99.90;;;;;;7378231;19;20029;-64
2023/12/30 03:50:56;;;;;;;8.77;1.52;;;6.30;99.90;;;;;;7380431;19;20053;-67
2023/12/30 03:53:23;;;;;;;12.60;1.88;;;6.20;99.90;;;;;;7376025;19;20026;-66
2023/12/30 03:55:50;;;;;;;16.50;2.60;;;6.10;99.90;;;;;;7372373;19;20368;-66
2023/12/30 03:58:16;;;;;;;10.38;1.92;;;6.10;99.90;;;;;;7377232;19;20030;-64
2023/12/30 04:00:43;;;;;;;10.90;1.83;;;6.20;99.90;;;;;;7377664;19;20022;-67
2023/12/30 04:03:09;;;;;;;12.85;2.30;;;6.20;99.90;;;;;;7379832;19;20014;-67
2023/12/30 04:05:35;;;;;;;8.63;2.38;;;6.10;99.90;;;;;;7376046;19;20046;-67
2023/12/30 04:08:01;;;;;;;12.75;1.85;;;6.10;99.90;;;;;;7379694;19;20237;-67
2023/12/30 04:10:28;;;;;;;9.40;1.63;;;6.10;99.90;;;;;;7376869;19;20926;-67
2023/12/30 04:12:54;;;;;;;11.45;1.98;;;6.10;99.90;;;;;;7375061;19;20018;-67
2023/12/30 04:15:22;;;;;;;9.45;2.40;;;6.10;99.90;;;;;;7373676;19;20022;-67
2023/12/30 04:17:48;;;;;;;9.60;2.00;;;6.10;99.90;;;;;;7372801;19;20054;-67
2023/12/30 04:20:15;;;;;;;15.45;2.35;;;6.10;99.90;;;;;;7377069;19;20014;-67
2023/12/30 04:22:44;;;;;;;10.98;1.95;;;6.10;99.90;;;;;;7372443;19;20022;-64
2023/12/30 04:25:10;;;;;;;17.98;2.42;;;6.20;99.90;;;;;;7370517;19;20027;-65
2023/12/30 04:27:56;;;;;;;13.88;2.42;;;6.20;99.90;;;;;;7369531;19;20025;-64
2023/12/30 04:30:23;;;;;;;14.93;2.65;;;6.20;99.90;;;;;;7369291;19;20048;-64
2023/12/30 04:32:50;;;;;;;10.80;2.28;;;6.20;99.90;;;;;;7370073;19;20087;-64
2023/12/30 04:35:16;;;;;;;11.05;2.33;;;6.20;99.90;;;;;;7366244;19;20374;-64
2023/12/30 04:37:42;;;;;;;11.63;2.13;;;6.20;99.90;;;;;;7370845;19;20052;-64
2023/12/30 04:40:08;;;;;;;10.57;2.35;;;6.10;99.90;;;;;;7369205;19;20026;-64
2023/12/30 04:42:38;;;;;;;16.30;2.65;;;6.10;99.90;;;;;;7371718;19;20954;-64
2023/12/30 04:45:05;;;;;;;11.60;2.67;;;6.10;99.90;;;;;;7368532;19;21035;-64
2023/12/30 04:47:31;;;;;;;10.38;2.25;;;6.00;99.90;;;;;;7371750;19;20414;-64
2023/12/30 04:49:58;;;;;;;10.40;2.10;;;6.00;99.90;;;;;;7370528;19;20028;-65
2023/12/30 04:52:24;;;;;;;6.90;2.10;;;6.00;99.90;;;;;;7366685;19;20014;-64
2023/12/30 04:54:50;;;;;;;14.98;2.90;;;6.00;99.90;;;;;;7368287;19;20915;-64
2023/12/30 04:57:17;;;;;;;8.50;1.80;;;5.90;99.90;;;;;;7370282;19;20014;-64
2023/12/30 04:59:43;;;;;;;9.18;1.90;;;5.90;99.90;;;;;;7371052;19;20057;-64
2023/12/30 05:02:09;;;;;;;9.93;2.45;;;5.80;99.90;;;;;;7370454;19;20794;-64
2023/12/30 05:04:35;;;;;;;9.70;1.73;;;5.80;99.90;;;;;;7369444;19;20796;-64
2023/12/30 05:07:02;;;;;;;12.65;3.17;;;5.80;99.90;;;;;;7369305;19;20668;-67
2023/12/30 05:09:28;;;;;;;9.18;1.52;;;5.70;99.90;;;;;;7368251;19;20041;-65
2023/12/30 05:12:14;;;;;;;9.73;1.98;;;5.70;99.90;;;;;;7364113;19;20011;-64
2023/12/30 05:14:40;;;;;;;12.50;2.28;;;5.60;99.90;;;;;;7369180;19;20513;-64
2023/12/30 05:17:10;;;;;;;9.23;2.35;;;5.60;99.90;;;;;;7367056;19;20014;-64
2023/12/30 05:19:36;;;;;;;11.48;2.53;;;5.50;99.90;;;;;;7370592;19;20015;-65
2023/12/30 05:22:04;;;;;;;11.50;3.00;;;5.40;99.90;;;;;;7367662;19;22166;-64
2023/12/30 05:24:33;;;;;;;13.00;2.20;;;5.40;99.90;;;;;;7368885;19;20039;-65
2023/12/30 05:27:00;;;;;;;15.38;2.22;;;5.40;99.90;;;;;;7369224;19;20039;-64
2023/12/30 05:29:26;;;;;;;13.43;2.38;;;5.30;99.90;;;;;;7364788;19;20046;-64
2023/12/30 05:31:52;;;;;;;11.90;2.28;;;5.30;99.90;;;;;;7368511;19;20023;-64
2023/12/30 05:34:18;;;;;;;11.15;2.55;;;5.30;99.90;;;;;;7364654;19;20019;-64
2023/12/30 05:36:47;;;;;;;11.73;2.20;;;5.20;99.90;;;;;;7364570;19;20014;-65
2023/12/30 05:39:14;;;;;;;15.43;2.65;;;5.30;99.90;;;;;;7367344;19;20026;-64
2023/12/30 05:41:44;;;;;;;12.23;2.40;;;5.30;99.90;;;;;;7370421;19;20029;-67
2023/12/30 05:44:12;;;;;;;16.17;1.95;;;5.20;99.90;;;;;;7375116;19;20415;-67
2023/12/30 05:46:38;;;;;;;15.00;2.20;;;5.20;99.90;;;;;;7368223;19;20033;-66
2023/12/30 05:49:04;;;;;;;10.25;2.28;;;5.20;99.90;;;;;;7372952;19;20014;-66
2023/12/30 05:51:30;;;;;;;15.00;2.53;;;5.20;99.90;;;;;;7370173;19;20050;-67
2023/12/30 05:53:56;;;;;;;7.85;1.48;;;5.20;99.90;;;;;;7366774;19;20095;-66
2023/12/30 05:56:23;;;;;;;10.07;2.25;;;5.20;99.90;;;;;;7366883;19;20759;-66
2023/12/30 05:58:52;;;;;;;10.25;2.47;;;5.20;99.90;;;;;;7368897;19;20372;-66
2023/12/30 06:01:18;;;;;;;12.43;2.47;;;5.20;99.90;;;;;;7367815;19;20541;-66
2023/12/30 06:03:45;;;;;;;10.57;2.13;;;5.20;99.90;;;;;;7363836;19;20026;-66
2023/12/30 06:06:14;;;;;;;13.88;2.15;;;5.10;99.90;;;;;;7367776;19;20058;-66
2023/12/30 06:08:40;;;;;;;13.82;2.65;;;5.10;99.90;;;;;;7367035;19;20014;-67
2023/12/30 06:11:06;;;;;;;10.85;2.30;;;5.10;99.90;;;;;;7367362;19;20022;-67
2023/12/30 06:13:34;;;;;;;11.25;2.55;;;5.10;99.90;;;;;;7363678;19;20146;-67
2023/12/30 06:16:00;;;;;;;14.38;3.33;;;5.10;99.90;;;;;;7362397;19;20467;-64
2023/12/30 06:18:30;;;;;;;12.07;2.47;;;5.10;99.90;;;;;;7365306;19;20604;-64
2023/12/30 06:20:58;;;;;;;15.75;2.35;;;5.10;99.90;;;;;;7360620;19;20662;-64
2023/12/30 06:23:27;;;;;;;14.93;2.35;;;5.10;99.90;;;;;;7365193;19;20036;-64
2023/12/30 06:25:53;;;;;;;12.60;2.45;;;5.10;99.90;;;;;;7362478;19;20022;-65
2023/12/30 06:28:20;;;;;;;10.02;2.13;;;5.10;99.90;;;;;;7362238;19;20018;-66
2023/12/30 06:30:46;;;;;;;12.25;2.28;;;5.10;99.90;;;;;;7365296;19;20022;-64
2023/12/30 06:33:13;;;;;;;13.32;2.33;;;5.10;99.90;;;;;;7362315;19;20031;-66
2023/12/30 06:35:39;;;;;;;10.57;1.90;;;5.10;99.90;;;;;;7365807;19;20046;-67
2023/12/30 06:38:05;;;;;;;13.30;2.05;;;5.10;99.90;;;;;;7363510;19;20022;-64
2023/12/30 06:40:31;;;;;;;14.68;2.60;;;5.10;99.90;;;;;;7364339;19;20016;-64
2023/12/30 06:42:58;;;;;;;11.65;2.55;;;5.20;99.90;;;;;;7363136;19;20102;-64
2023/12/30 06:45:25;;;;;;;10.20;2.33;;;5.30;99.90;;;;;;7360062;19;20015;-67
2023/12/30 06:47:51;;;;;;;14.80;2.65;;;5.40;99.90;;;;;;7366806;19;20014;-67
2023/12/30 06:50:19;;;;;;;10.52;2.17;;;5.40;99.90;;;;;;7374062;19;20465;-67
2023/12/30 06:52:47;;;;;;;10.20;2.45;;;5.40;99.90;;;;;;7368517;19;21320;-67
2023/12/30 06:55:14;;;;;;;13.35;2.85;;;5.40;99.90;;;;;;7371949;19;20025;-65
2023/12/30 06:57:41;;;;;;;11.57;2.13;;;5.50;99.90;;;;;;7364280;19;20671;-66
2023/12/30 07:00:08;;;;;;;20.13;2.92;;;5.50;99.90;;;;;;7372919;19;20487;-65
2023/12/30 07:02:35;;;;;;;10.32;2.28;;;5.60;99.90;;;;;;7370494;19;20035;-64
2023/12/30 07:05:01;;;;;;;10.85;2.33;;;5.60;99.90;;;;;;7372802;19;20025;-64
2023/12/30 07:07:27;;;;;;;12.35;2.70;;;5.60;99.90;;;;;;7368229;19;20014;-64
2023/12/30 07:09:53;;;;;;;11.35;2.20;;;5.50;99.90;;;;;;7374438;19;20131;-64
2023/12/30 07:12:20;;;;;;;12.38;2.53;;;5.50;99.90;;;;;;7369572;19;20019;-67
2023/12/30 07:14:46;;;;;;;13.98;2.33;;;5.40;99.90;;;;;;7376921;19;20098;-67
2023/12/30 07:17:14;;;;;;;9.48;2.30;;;5.30;99.90;;;;;;7373711;19;20031;-64
2023/12/30 07:19:41;;;;;;;11.48;2.30;;;5.30;99.90;;;;;;7371963;19;20082;-64
2023/12/30 07:22:09;;;;;;;9.88;2.70;;;5.10;99.90;;;;;;7371455;19;20043;-65
2023/12/30 07:24:37;;;;;;;12.65;2.63;;;5.10;99.90;;;;;;7370675;19;20041;-68
2023/12/30 07:27:04;;;;;;;12.88;2.53;;;5.00;99.90;;;;;;7376016;19;20769;-68
2023/12/30 07:29:30;;;;;;;13.07;2.90;;;5.00;99.90;;;;;;7373143;19;20022;-68
2023/12/30 07:31:57;;;;;;;14.02;3.28;;;4.90;99.90;;;;;;7372332;19;20018;-68
2023/12/30 07:34:23;;;;;;;11.68;2.85;;;4.90;99.90;;;;;;7365793;19;20082;-68
2023/12/30 07:37:01;;;;;;;11.63;2.30;;;4.90;99.90;;;;;;7370362;19;20014;-68
2023/12/30 07:39:29;;;;;;;12.48;2.15;;;5.00;99.90;;;;;;7370632;19;20978;-65
2023/12/30 07:41:55;;;;;;;12.88;2.80;;;4.90;99.90;;;;;;7370326;19;20387;-65
2023/12/30 07:44:22;;;;;;;13.30;2.30;;;5.00;99.90;;;;;;7367964;19;20473;-68
2023/12/30 07:46:49;;;;;;;10.98;2.15;;;5.10;99.90;;;;;;7367277;19;20438;-65
2023/12/30 07:49:17;;;;;;;12.13;2.25;;;5.00;99.90;;;;;;7366854;19;20022;-67
2023/12/30 07:51:43;;;;;;;16.80;2.92;;;5.10;99.90;;;;;;7367841;19;20026;-71
2023/12/30 07:54:10;;;;;;;15.98;2.70;;;5.10;99.90;;;;;;7369835;19;20025;-62
2023/12/30 07:56:36;;;;;;;17.08;3.08;;;5.10;99.90;;;;;;7370415;19;20077;-71
2023/12/30 07:59:02;;;;;;;9.50;2.17;;;5.10;99.90;;;;;;7369863;19;20022;-71
2023/12/30 08:01:28;;;;;;;14.63;2.65;;;5.20;99.90;;;;;;7365491;19;20022;-71
2023/12/30 08:03:55;;;;;;;13.38;2.28;;;5.30;99.90;;;;;;7365926;19;20029;-71
2023/12/30 08:06:21;;;;;;;9.98;2.22;;;5.40;99.90;;;;;;7369739;19;20366;-71
2023/12/30 08:08:47;;;;;;;12.93;3.47;;;5.40;99.90;;;;;;7365693;19;20022;-71
2023/12/30 08:11:13;;;;;;;15.73;2.85;;;5.40;99.90;;;;;;7370615;19;20046;-71
2023/12/30 08:13:40;;;;;;;11.15;2.10;;;5.40;99.90;;;;;;7366287;19;20042;-71
2023/12/30 08:16:06;;;;;;;13.45;2.15;;;5.40;99.90;;;;;;7370411;19;20030;-71
2023/12/30 08:18:52;;;;;;;10.57;2.00;;;5.50;99.90;;;;;;7363886;19;20018;-68
2023/12/30 08:21:19;;;;;;;12.77;2.92;;;5.50;99.90;;;;;;7369998;19;20061;-67
2023/12/30 08:24:07;;;;;;;7.18;2.38;;;5.60;99.90;;;;;;7367073;19;20018;-67
2023/12/30 08:26:33;;;;;;;11.13;2.42;;;5.60;99.90;;;;;;7368980;19;21037;-67
2023/12/30 08:28:59;;;;;;;11.13;2.58;;;5.60;99.90;;;;;;7364108;19;20846;-67
2023/12/30 08:31:25;;;;;;;10.63;2.40;;;5.70;99.90;;;;;;7368601;19;20035;-62
2023/12/30 08:33:51;;;;;;;11.93;2.25;;;5.70;99.90;;;;;;7366199;19;20015;-62
2023/12/30 08:36:38;;;;;;;14.70;3.05;;;5.70;99.90;;;;;;7368389;19;20054;-62
2023/12/30 08:39:04;;;;;;;9.52;2.70;;;5.80;99.90;;;;;;7367981;19;20034;-62
2023/12/30 08:41:30;;;;;;;14.43;2.70;;;5.80;99.90;;;;;;7366900;19;20022;-62
2023/12/30 08:43:56;;;;;;;11.60;2.53;;;5.90;99.90;;;;;;7369939;19;20022;-64
2023/12/30 08:46:23;;;;;;;9.98;2.55;;;5.90;99.90;;;;;;7364685;19;20386;-63
2023/12/30 08:48:49;;;;;;;13.13;2.80;;;6.00;99.90;;;;;;7368974;19;20084;-62
2023/12/30 08:51:16;;;;;;;9.98;2.22;;;6.00;99.90;;;;;;7366917;19;20019;-67
2023/12/30 08:53:42;;;;;;;9.35;2.58;;;6.10;99.90;;;;;;7366451;19;20491;-67
2023/12/30 08:56:11;;;;;;;12.48;3.75;;;6.20;99.90;;;;;;7367367;19;20019;-68
2023/12/30 08:58:37;;;;;;;17.52;2.78;;;6.10;99.90;;;;;;7361013;19;20070;-69
2023/12/30 09:01:04;;;;;;;10.40;2.47;;;6.20;99.90;;;;;;7369140;19;20030;-68
2023/12/30 09:03:30;;;;;;;17.70;3.08;;;6.30;99.90;;;;;;7364018;19;20959;-68
2023/12/30 09:05:57;;;;;;;7.50;2.38;;;6.40;99.90;;;;;;7368730;19;20025;-69
2023/12/30 09:08:23;;;;;;;8.20;2.17;;;6.40;99.90;;;;;;7365345;19;20018;-68
2023/12/30 09:10:49;;;;;;;11.27;3.42;;;6.50;99.90;;;;;;7367355;19;20509;-67
2023/12/30 09:13:15;;;;;;;11.65;2.20;;;6.50;99.90;;;;;;7366226;19;20026;-67
2023/12/30 09:15:42;;;;;;;11.88;2.15;;;6.60;99.90;;;;;;7367252;19;20114;-68
2023/12/30 09:18:08;;;;;;;13.77;2.40;;;6.60;99.90;;;;;;7365295;19;20022;-62
2023/12/30 09:20:34;;;;;;;12.65;4.05;;;6.70;99.90;;;;;;7368953;19;20672;-63
2023/12/30 09:23:01;;;;;;;12.52;3.20;;;6.70;99.90;;;;;;7362296;19;20630;-63
2023/12/30 09:25:30;;;;;;;16.63;5.20;;;6.80;99.90;;;;;;7368255;19;20710;-63
2023/12/30 09:27:56;;;;;;;12.07;2.40;;;6.90;99.90;;;;;;7369915;19;20015;-63
2023/12/30 09:30:23;;;;;;;9.52;2.80;;;7.00;99.90;;;;;;7367902;19;20378;-63
2023/12/30 09:32:49;;;;;;;12.40;3.03;;;7.00;99.90;;;;;;7366213;19;20018;-64
2023/12/30 09:35:19;;;;;;;8.85;2.13;;;7.20;99.90;;;;;;7366442;19;20019;-70
2023/12/30 09:37:45;;;;;;;12.38;2.10;;;7.10;99.90;;;;;;7367660;19;20026;-70
2023/12/30 09:40:14;;;;;;;11.75;2.00;;;7.20;99.90;;;;;;7366224;19;20123;-64
2023/12/30 09:42:44;;;;;;;9.98;2.10;;;7.20;99.90;;;;;;7367456;19;20563;-63
2023/12/30 09:45:13;;;;;;;7.57;1.92;;;7.30;99.90;;;;;;7366592;19;20022;-64
2023/12/30 09:47:40;;;;;;;9.77;2.03;;;7.30;99.90;;;;;;7368109;19;20370;-64
2023/12/30 09:50:08;;;;;;;9.75;2.05;;;7.40;99.90;;;;;;7365421;19;20018;-64
2023/12/30 09:52:35;;;;;;;7.13;2.20;;;7.50;99.90;;;;;;7363940;19;20018;-64
2023/12/30 09:55:01;;;;;;;10.27;2.17;;;7.50;99.90;;;;;;7368106;19;20015;-64
2023/12/30 09:57:27;;;;;;;6.63;2.00;;;7.40;99.90;;;;;;7363806;19;20014;-63
2023/12/30 09:59:55;;;;;;;8.15;2.30;;;7.40;99.90;;;;;;7362855;19;20026;-63
2023/12/30 10:02:21;;;;;;;8.32;2.30;;;7.40;99.90;;;;;;7367008;19;20052;-63
2023/12/30 10:04:49;;;;;;;8.98;2.28;;;7.40;99.90;;;;;;7363291;19;20022;-62
2023/12/30 10:07:16;;;;;;;12.75;2.42;;;7.50;99.90;;;;;;7368047;19;20022;-62
2023/12/30 10:09:44;;;;;;;16.90;2.78;;;7.60;99.90;;;;;;7362428;19;20042;-63
2023/12/30 10:12:10;;;;;;;13.05;2.92;;;7.50;99.90;;;;;;7365672;19;20481;-68
2023/12/30 10:14:36;;;;;;;11.70;2.55;;;7.60;99.90;;;;;;7361670;19;20019;-63
2023/12/30 10:17:04;;;;;;;16.40;3.42;;;7.50;99.90;;;;;;7366998;19;20057;-63
2023/12/30 10:19:30;;;;;;;13.90;3.00;;;7.50;99.90;;;;;;7361772;19;20015;-63
2023/12/30 10:22:16;;;;;;;12.23;3.58;;;7.60;99.90;;;;;;7364631;19;20006;-63
2023/12/30 10:24:42;;;;;;;10.63;3.60;;;7.60;99.90;;;;;;7363059;19;20943;-62
2023/12/30 10:27:10;;;;;;;9.15;2.92;;;7.70;99.90;;;;;;7365181;19;20053;-63
2023/12/30 10:29:36;;;;;;;8.10;3.22;;;7.70;99.90;;;;;;7363714;19;20866;-68
2023/12/30 10:32:04;;;;;;;9.35;3.75;;;7.60;99.90;;;;;;7365439;19;20908;-68
2023/12/30 10:34:31;;;;;;;11.10;3.75;;;7.60;99.90;;;;;;7359295;19;20015;-68
2023/12/30 10:36:59;;;;;;;11.90;4.32;;;7.60;99.90;;;;;;7364791;19;20042;-68
2023/12/30 10:39:26;;;;;;;12.52;4.72;;;7.60;99.90;;;;;;7364603;19;20639;-68
2023/12/30 10:41:53;;;;;;;15.80;5.50;;;7.80;99.90;;;;;;7364440;19;20966;-68
2023/12/30 10:44:19;;;;;;;18.48;5.38;;;8.00;99.90;;;;;;7361222;19;20675;-68
2023/12/30 10:46:48;;;;;;;12.35;5.38;;;8.00;99.90;;;;;;7362372;19;20037;-67
2023/12/30 10:49:17;;;;;;;16.83;6.32;;;8.20;99.90;;;;;;7364102;19;20022;-68
2023/12/30 10:51:47;;;;;;;17.52;6.55;;;8.20;99.90;;;;;;7365161;19;20026;-62
2023/12/30 10:54:20;;;;;;;18.52;5.97;;;8.10;99.90;;;;;;7364776;19;20113;-64
2023/12/30 10:57:00;;;;;;;15.57;6.28;;;8.10;99.90;;;;;;7362468;19;20014;-70
2023/12/30 10:59:27;;;;;;;14.30;6.03;;;8.10;99.90;;;;;;7360811;19;20026;-70
2023/12/30 11:01:54;;;;;;;14.32;5.85;;;8.20;99.90;;;;;;7365512;19;20640;-70
2023/12/30 11:04:21;;;;;;;18.58;7.03;;;8.20;99.90;;;;;;7366749;19;20014;-70
2023/12/30 11:07:11;;;;;;;16.98;6.63;;;8.40;99.90;;;;;;7364207;19;20014;-69
2023/12/30 11:09:37;;;;;;;15.20;5.47;;;8.40;99.90;;;;;;7364264;19;20490;-69
2023/12/30 11:12:05;;;;;;;17.48;5.55;;;8.40;99.90;;;;;;7369734;19;20014;-72
2023/12/30 11:14:36;;;;;;;14.93;5.38;;;8.60;99.90;;;;;;7365314;19;20015;-73
2023/12/30 11:17:06;;;;;;;17.83;6.70;;;8.60;99.90;;;;;;7361020;19;20015;-72
2023/12/30 11:19:35;;;;;;;13.35;5.97;;;8.70;99.90;;;;;;7360227;19;20063;-73
2023/12/30 11:22:06;;;;;;;11.73;4.95;;;8.60;99.90;;;;;;7361770;19;21096;-71
2023/12/30 11:24:34;;;;;;;14.40;4.70;;;8.70;99.90;;;;;;7362788;19;20116;-72
2023/12/30 11:27:00;;;;;;;15.35;4.85;;;8.80;99.90;;;;;;7363735;19;20021;-72
2023/12/30 11:29:27;;;;;;;17.02;3.97;;;9.00;99.90;;;;;;7362118;19;20025;-72
2023/12/30 11:31:55;;;;;;;9.98;4.25;;;9.20;99.90;;;;;;7364912;19;20070;-72
2023/12/30 11:34:24;;;;;;;14.13;3.95;;;9.30;99.90;;;;;;7366359;19;20033;-72
2023/12/30 11:36:52;;;;;;;13.45;4.30;;;9.50;99.90;;;;;;7369843;19;20018;-71
2023/12/30 11:39:30;;;;;;;17.70;5.03;;;9.60;99.90;;;;;;7374911;19;20014;-69
2023/12/30 11:42:01;;;;;;;11.48;3.95;;;9.50;99.90;;;;;;7369630;19;20025;-63
2023/12/30 11:44:28;;;;;;;16.52;4.50;;;9.60;99.90;;;;;;7365777;19;20018;-65
2023/12/30 11:46:54;;;;;;;13.73;4.55;;;9.70;99.90;;;;;;7365187;19;20105;-63
2023/12/30 11:49:21;;;;;;;12.70;3.30;;;9.60;99.90;;;;;;7368924;19;20039;-63
2023/12/30 11:52:09;;;;;;;15.07;4.30;;;9.70;99.90;;;;;;7368559;19;20018;-65
2023/12/30 11:54:35;;;;;;;8.98;2.95;;;9.90;99.90;;;;;;7365394;19;20035;-61
2023/12/30 11:57:03;;;;;;;14.50;3.67;;;10.00;99.90;;;;;;7371483;19;20030;-63
2023/12/30 11:59:30;;;;;;;13.13;3.72;;;9.90;99.90;;;;;;7366772;19;20019;-65
2023/12/30 12:02:12;;;;;;;11.07;3.40;;;9.80;99.90;;;;;;7370231;19;20521;-65
2023/12/30 12:04:39;;;;;;;11.93;3.88;;;9.50;99.90;;;;;;7369202;19;20018;-63
2023/12/30 12:07:05;;;;;;;12.35;3.17;;;9.20;99.90;;;;;;7370892;19;20014;-64
2023/12/30 12:09:32;;;;;;;8.43;3.60;;;9.10;99.90;;;;;;7365667;19;20106;-65
2023/12/30 12:11:58;;;;;;;13.90;3.80;;;9.10;99.90;;;;;;7366170;19;20014;-64
2023/12/30 12:14:25;;;;;;;9.43;3.15;;;9.30;99.90;;;;;;7369714;19;20458;-64
2023/12/30 12:16:51;;;;;;;16.10;3.55;;;9.40;99.90;;;;;;7369268;19;20793;-64
2023/12/30 12:19:18;;;;;;;11.70;3.33;;;9.30;99.90;;;;;;7369838;19;20014;-64
2023/12/30 12:21:45;;;;;;;13.02;3.85;;;9.20;99.90;;;;;;7369200;19;20066;-64
2023/12/30 12:24:11;;;;;;;12.23;3.63;;;9.10;99.90;;;;;;7368562;19;20042;-63
2023/12/30 12:26:37;;;;;;;10.73;4.05;;;9.00;99.90;;;;;;7367851;19;20014;-70
2023/12/30 12:29:04;;;;;;;13.45;3.75;;;8.90;99.90;;;;;;7370953;19;20783;-70
2023/12/30 12:31:31;;;;;;;8.35;3.25;;;8.80;99.90;;;;;;7364306;19;20018;-70
2023/12/30 12:33:57;;;;;;;12.07;4.20;;;8.70;99.90;;;;;;7364902;19;20035;-70
2023/12/30 12:36:23;;;;;;;16.65;5.38;;;8.70;99.90;;;;;;7365465;19;20014;-70
2023/12/30 12:38:50;;;;;;;11.23;4.00;;;8.60;99.90;;;;;;7366388;19;20022;-70
2023/12/30 12:41:16;;;;;;;9.43;3.67;;;8.60;99.90;;;;;;7367966;19;20014;-72
2023/12/30 12:43:42;;;;;;;15.73;4.10;;;8.60;99.90;;;;;;7365891;19;20029;-66
2023/12/30 12:46:08;;;;;;;16.17;4.35;;;8.60;99.90;;;;;;7368759;19;20014;-70
2023/12/30 12:48:55;;;;;;;14.73;4.10;;;8.60;99.90;;;;;;7365715;19;20798;-70
2023/12/30 12:51:22;;;;;;;14.70;3.97;;;8.50;99.90;;;;;;7367490;19;20042;-70
2023/12/30 12:53:49;;;;;;;13.25;4.70;;;8.50;99.90;;;;;;7363855;19;20022;-70